sensor_id;sensor_type;location;lat;lon;timestamp;pressure;altitude;pressure_sealevel;temperature;humidity
58967;BME280;44744;51.894;5.080;2022-12-18T00:00:27;102963.69;;;-3.11;81.79
58967;BME280;44744;51.894;5.080;2022-12-18T00:01:32;102965.64;;;-3.10;81.78
58967;BME280;44744;51.894;5.080;2022-12-18T00:02:33;102963.38;;;-3.10;81.64
58967;BME280;44744;51.894;5.080;2022-12-18T00:03:33;102961.80;;;-3.11;81.77
58967;BME280;44744;51.894;5.080;2022-12-18T00:04:34;102960.29;;;-3.10;81.93
58967;BME280;44744;51.894;5.080;2022-12-18T00:05:34;102959.30;;;-3.09;82.03
58967;BME280;44744;51.894;5.080;2022-12-18T00:06:35;102958.56;;;-3.09;81.59
58967;BME280;44744;51.894;5.080;2022-12-18T00:07:35;102953.81;;;-3.12;81.71
58967;BME280;44744;51.894;5.080;2022-12-18T00:08:36;102950.81;;;-3.13;81.83
58967;BME280;44744;51.894;5.080;2022-12-18T00:09:36;102950.05;;;-3.15;81.80
58967;BME280;44744;51.894;5.080;2022-12-18T00:10:36;102947.39;;;-3.17;81.68
58967;BME280;44744;51.894;5.080;2022-12-18T00:11:37;102950.46;;;-3.18;81.95
58967;BME280;44744;51.894;5.080;2022-12-18T00:12:37;102948.52;;;-3.19;81.44
58967;BME280;44744;51.894;5.080;2022-12-18T00:13:37;102947.70;;;-3.23;81.58
58967;BME280;44744;51.894;5.080;2022-12-18T00:14:38;102947.38;;;-3.27;81.23
58967;BME280;44744;51.894;5.080;2022-12-18T00:15:39;102947.27;;;-3.30;81.24
58967;BME280;44744;51.894;5.080;2022-12-18T00:16:40;102944.02;;;-3.34;81.11
58967;BME280;44744;51.894;5.080;2022-12-18T00:17:42;102940.40;;;-3.38;81.22
58967;BME280;44744;51.894;5.080;2022-12-18T00:18:43;102940.06;;;-3.43;81.13
58967;BME280;44744;51.894;5.080;2022-12-18T00:19:43;102938.73;;;-3.46;81.42
58967;BME280;44744;51.894;5.080;2022-12-18T00:20:43;102937.93;;;-3.49;81.17
58967;BME280;44744;51.894;5.080;2022-12-18T00:21:44;102929.71;;;-3.51;81.50
58967;BME280;44744;51.894;5.080;2022-12-18T00:22:44;102925.30;;;-3.54;81.58
58967;BME280;44744;51.894;5.080;2022-12-18T00:23:45;102921.09;;;-3.55;81.41
58967;BME280;44744;51.894;5.080;2022-12-18T00:24:45;102912.92;;;-3.56;81.54
58967;BME280;44744;51.894;5.080;2022-12-18T00:25:46;102908.59;;;-3.57;81.84
58967;BME280;44744;51.894;5.080;2022-12-18T00:26:46;102908.81;;;-3.56;81.96
58967;BME280;44744;51.894;5.080;2022-12-18T00:27:46;102908.88;;;-3.54;82.15
58967;BME280;44744;51.894;5.080;2022-12-18T00:28:47;102910.48;;;-3.52;81.71
58967;BME280;44744;51.894;5.080;2022-12-18T00:29:48;102913.77;;;-3.52;81.89
58967;BME280;44744;51.894;5.080;2022-12-18T00:30:48;102915.15;;;-3.52;81.74
58967;BME280;44744;51.894;5.080;2022-12-18T00:31:49;102920.09;;;-3.54;82.22
58967;BME280;44744;51.894;5.080;2022-12-18T00:32:49;102924.02;;;-3.55;81.76
58967;BME280;44744;51.894;5.080;2022-12-18T00:33:50;102920.95;;;-3.59;81.87
58967;BME280;44744;51.894;5.080;2022-12-18T00:34:50;102922.27;;;-3.62;81.60
58967;BME280;44744;51.894;5.080;2022-12-18T00:35:50;102915.95;;;-3.64;81.73
58967;BME280;44744;51.894;5.080;2022-12-18T00:36:51;102920.88;;;-3.66;81.63
58967;BME280;44744;51.894;5.080;2022-12-18T00:37:51;102918.39;;;-3.68;81.52
58967;BME280;44744;51.894;5.080;2022-12-18T00:38:53;102918.48;;;-3.70;81.42
58967;BME280;44744;51.894;5.080;2022-12-18T00:39:53;102923.06;;;-3.72;81.46
58967;BME280;44744;51.894;5.080;2022-12-18T00:40:54;102923.73;;;-3.73;81.47
58967;BME280;44744;51.894;5.080;2022-12-18T00:41:54;102928.00;;;-3.74;81.53
58967;BME280;44744;51.894;5.080;2022-12-18T00:42:54;102927.07;;;-3.77;81.51
58967;BME280;44744;51.894;5.080;2022-12-18T00:43:55;102927.73;;;-3.77;81.52
58967;BME280;44744;51.894;5.080;2022-12-18T00:44:55;102929.55;;;-3.79;82.01
58967;BME280;44744;51.894;5.080;2022-12-18T00:45:55;102926.04;;;-3.81;81.72
58967;BME280;44744;51.894;5.080;2022-12-18T00:46:56;102927.89;;;-3.82;81.99
58967;BME280;44744;51.894;5.080;2022-12-18T00:47:56;102928.72;;;-3.83;82.13
58967;BME280;44744;51.894;5.080;2022-12-18T00:48:57;102930.21;;;-3.85;81.86
58967;BME280;44744;51.894;5.080;2022-12-18T00:49:57;102926.41;;;-3.85;81.98
58967;BME280;44744;51.894;5.080;2022-12-18T00:50:58;102927.10;;;-3.84;82.10
58967;BME280;44744;51.894;5.080;2022-12-18T00:51:58;102928.64;;;-3.85;82.06
58967;BME280;44744;51.894;5.080;2022-12-18T00:52:58;102933.34;;;-3.85;82.15
58967;BME280;44744;51.894;5.080;2022-12-18T00:54:01;102936.44;;;-3.85;82.20
58967;BME280;44744;51.894;5.080;2022-12-18T00:55:01;102934.20;;;-3.85;82.16
58967;BME280;44744;51.894;5.080;2022-12-18T00:56:01;102931.27;;;-3.84;82.34
58967;BME280;44744;51.894;5.080;2022-12-18T00:57:01;102929.88;;;-3.85;82.25
58967;BME280;44744;51.894;5.080;2022-12-18T00:58:02;102928.27;;;-3.86;81.81
58967;BME280;44744;51.894;5.080;2022-12-18T00:59:02;102924.70;;;-3.89;82.00
58967;BME280;44744;51.894;5.080;2022-12-18T01:00:04;102928.38;;;-3.92;81.44
58967;BME280;44744;51.894;5.080;2022-12-18T01:01:06;102930.53;;;-3.95;81.64
58967;BME280;44744;51.894;5.080;2022-12-18T01:02:06;102932.50;;;-3.97;81.68
58967;BME280;44744;51.894;5.080;2022-12-18T01:03:07;102933.31;;;-3.99;81.79
58967;BME280;44744;51.894;5.080;2022-12-18T01:04:07;102938.97;;;-4.00;81.94
58967;BME280;44744;51.894;5.080;2022-12-18T01:05:09;102940.48;;;-4.01;81.99
58967;BME280;44744;51.894;5.080;2022-12-18T01:06:11;102936.52;;;-4.01;82.26
58967;BME280;44744;51.894;5.080;2022-12-18T01:07:11;102939.15;;;-4.00;82.26
58967;BME280;44744;51.894;5.080;2022-12-18T01:08:12;102942.63;;;-3.99;82.13
58967;BME280;44744;51.894;5.080;2022-12-18T01:09:12;102942.27;;;-3.99;82.32
58967;BME280;44744;51.894;5.080;2022-12-18T01:10:13;102947.11;;;-4.00;82.41
58967;BME280;44744;51.894;5.080;2022-12-18T01:11:17;102947.77;;;-4.01;82.29
58967;BME280;44744;51.894;5.080;2022-12-18T01:12:17;102948.08;;;-4.01;82.47
58967;BME280;44744;51.894;5.080;2022-12-18T01:13:18;102950.27;;;-4.03;82.56
58967;BME280;44744;51.894;5.080;2022-12-18T01:14:18;102950.45;;;-4.02;82.64
58967;BME280;44744;51.894;5.080;2022-12-18T01:15:21;102949.40;;;-4.03;82.64
58967;BME280;44744;51.894;5.080;2022-12-18T01:16:22;102947.16;;;-4.02;82.50
58967;BME280;44744;51.894;5.080;2022-12-18T01:17:23;102948.02;;;-4.03;82.39
58967;BME280;44744;51.894;5.080;2022-12-18T01:18:23;102947.66;;;-4.03;82.44
58967;BME280;44744;51.894;5.080;2022-12-18T01:19:24;102947.09;;;-4.04;82.13
58967;BME280;44744;51.894;5.080;2022-12-18T01:20:24;102942.77;;;-4.05;82.43
58967;BME280;44744;51.894;5.080;2022-12-18T01:21:24;102939.31;;;-4.04;82.40
58967;BME280;44744;51.894;5.080;2022-12-18T01:22:24;102940.84;;;-4.05;81.99
58967;BME280;44744;51.894;5.080;2022-12-18T01:23:26;102941.27;;;-4.08;82.21
58967;BME280;44744;51.894;5.080;2022-12-18T01:24:26;102943.63;;;-4.09;82.20
58967;BME280;44744;51.894;5.080;2022-12-18T01:25:27;102944.30;;;-4.09;81.95
58967;BME280;44744;51.894;5.080;2022-12-18T01:26:27;102948.29;;;-4.09;82.25
58967;BME280;44744;51.894;5.080;2022-12-18T01:27:28;102946.19;;;-4.09;81.96
58967;BME280;44744;51.894;5.080;2022-12-18T01:28:28;102950.35;;;-4.09;82.09
58967;BME280;44744;51.894;5.080;2022-12-18T01:29:28;102952.06;;;-4.10;82.31
58967;BME280;44744;51.894;5.080;2022-12-18T01:30:29;102962.10;;;-4.09;82.34
58967;BME280;44744;51.894;5.080;2022-12-18T01:31:32;102957.75;;;-4.10;82.52
58967;BME280;44744;51.894;5.080;2022-12-18T01:32:32;102955.16;;;-4.10;82.31
58967;BME280;44744;51.894;5.080;2022-12-18T01:33:33;102953.63;;;-4.09;82.19
58967;BME280;44744;51.894;5.080;2022-12-18T01:34:35;102950.85;;;-4.10;82.52
58967;BME280;44744;51.894;5.080;2022-12-18T01:35:44;102944.69;;;-4.08;82.50
58967;BME280;44744;51.894;5.080;2022-12-18T01:36:45;102944.73;;;-4.07;82.53
58967;BME280;44744;51.894;5.080;2022-12-18T01:37:45;102936.41;;;-4.08;82.35
58967;BME280;44744;51.894;5.080;2022-12-18T01:38:46;102939.48;;;-4.09;82.34
58967;BME280;44744;51.894;5.080;2022-12-18T01:39:47;102941.34;;;-4.10;82.02
58967;BME280;44744;51.894;5.080;2022-12-18T01:40:47;102938.52;;;-4.11;82.35
58967;BME280;44744;51.894;5.080;2022-12-18T01:41:47;102943.22;;;-4.11;82.22
58967;BME280;44744;51.894;5.080;2022-12-18T01:42:54;102942.83;;;-4.12;82.14
58967;BME280;44744;51.894;5.080;2022-12-18T01:43:57;102946.05;;;-4.14;82.17
58967;BME280;44744;51.894;5.080;2022-12-18T01:46:02;102949.61;;;-4.15;82.16
58967;BME280;44744;51.894;5.080;2022-12-18T01:47:03;102951.14;;;-4.16;82.07
58967;BME280;44744;51.894;5.080;2022-12-18T01:48:06;102951.45;;;-4.17;82.16
58967;BME280;44744;51.894;5.080;2022-12-18T01:49:07;102952.80;;;-4.18;81.96
58967;BME280;44744;51.894;5.080;2022-12-18T01:51:12;102945.42;;;-4.16;82.14
58967;BME280;44744;51.894;5.080;2022-12-18T01:52:13;102946.33;;;-4.15;81.98
58967;BME280;44744;51.894;5.080;2022-12-18T01:53:21;102949.12;;;-4.15;82.40
58967;BME280;44744;51.894;5.080;2022-12-18T01:54:22;102944.56;;;-4.16;82.15
58967;BME280;44744;51.894;5.080;2022-12-18T01:55:25;102944.00;;;-4.17;82.11
58967;BME280;44744;51.894;5.080;2022-12-18T01:56:26;102946.98;;;-4.17;82.11
58967;BME280;44744;51.894;5.080;2022-12-18T01:57:27;102947.10;;;-4.17;82.17
58967;BME280;44744;51.894;5.080;2022-12-18T01:58:43;102946.42;;;-4.17;82.22
58967;BME280;44744;51.894;5.080;2022-12-18T01:59:49;102947.98;;;-4.17;81.90
58967;BME280;44744;51.894;5.080;2022-12-18T02:00:51;102949.09;;;-4.20;82.02
58967;BME280;44744;51.894;5.080;2022-12-18T02:01:51;102948.33;;;-4.21;82.12
58967;BME280;44744;51.894;5.080;2022-12-18T02:02:52;102945.14;;;-4.23;82.01
58967;BME280;44744;51.894;5.080;2022-12-18T02:03:52;102946.77;;;-4.26;81.76
58967;BME280;44744;51.894;5.080;2022-12-18T02:04:53;102945.98;;;-4.28;81.93
58967;BME280;44744;51.894;5.080;2022-12-18T02:06:16;102945.52;;;-4.32;81.44
58967;BME280;44744;51.894;5.080;2022-12-18T02:09:28;102947.92;;;-4.40;81.54
58967;BME280;44744;51.894;5.080;2022-12-18T02:10:27;102952.41;;;-4.45;81.66
58967;BME280;44744;51.894;5.080;2022-12-18T02:15:54;102951.94;;;-4.52;81.70
58967;BME280;44744;51.894;5.080;2022-12-18T02:16:43;102954.88;;;-4.52;82.28
58967;BME280;44744;51.894;5.080;2022-12-18T02:17:53;102953.22;;;-4.50;82.04
58967;BME280;44744;51.894;5.080;2022-12-18T02:18:58;102952.77;;;-4.49;82.00
58967;BME280;44744;51.894;5.080;2022-12-18T02:20:36;102955.09;;;-4.47;82.25
58967;BME280;44744;51.894;5.080;2022-12-18T02:24:50;102952.77;;;-4.44;82.29
58967;BME280;44744;51.894;5.080;2022-12-18T02:26:16;102955.52;;;-4.45;81.98
58967;BME280;44744;51.894;5.080;2022-12-18T02:27:19;102955.86;;;-4.44;82.32
58967;BME280;44744;51.894;5.080;2022-12-18T02:28:20;102954.98;;;-4.46;81.86
58967;BME280;44744;51.894;5.080;2022-12-18T02:29:26;102954.92;;;-4.47;82.08
58967;BME280;44744;51.894;5.080;2022-12-18T02:30:31;102953.84;;;-4.48;81.99
58967;BME280;44744;51.894;5.080;2022-12-18T02:31:40;102950.88;;;-4.48;82.03
58967;BME280;44744;51.894;5.080;2022-12-18T02:32:47;102948.41;;;-4.50;81.96
58967;BME280;44744;51.894;5.080;2022-12-18T02:33:51;102947.66;;;-4.51;81.39
58967;BME280;44744;51.894;5.080;2022-12-18T02:34:55;102948.60;;;-4.53;81.53
58967;BME280;44744;51.894;5.080;2022-12-18T02:35:58;102945.26;;;-4.55;81.73
58967;BME280;44744;51.894;5.080;2022-12-18T02:37:02;102944.25;;;-4.54;81.46
58967;BME280;44744;51.894;5.080;2022-12-18T02:38:04;102942.36;;;-4.54;81.84
58967;BME280;44744;51.894;5.080;2022-12-18T02:39:06;102937.88;;;-4.54;81.78
58967;BME280;44744;51.894;5.080;2022-12-18T02:40:08;102936.27;;;-4.51;81.78
58967;BME280;44744;51.894;5.080;2022-12-18T02:41:10;102933.05;;;-4.50;81.52
58967;BME280;44744;51.894;5.080;2022-12-18T02:42:11;102935.69;;;-4.48;81.97
58967;BME280;44744;51.894;5.080;2022-12-18T02:43:14;102935.94;;;-4.46;81.81
58967;BME280;44744;51.894;5.080;2022-12-18T02:44:15;102935.98;;;-4.46;81.59
58967;BME280;44744;51.894;5.080;2022-12-18T02:45:15;102937.38;;;-4.45;81.84
58967;BME280;44744;51.894;5.080;2022-12-18T02:46:42;102939.80;;;-4.44;81.80
58967;BME280;44744;51.894;5.080;2022-12-18T02:47:46;102937.45;;;-4.43;82.04
58967;BME280;44744;51.894;5.080;2022-12-18T02:48:48;102937.11;;;-4.43;81.76
58967;BME280;44744;51.894;5.080;2022-12-18T02:51:31;102942.66;;;-4.42;81.90
58967;BME280;44744;51.894;5.080;2022-12-18T02:56:55;102948.38;;;-4.46;81.51
58967;BME280;44744;51.894;5.080;2022-12-18T02:59:19;102951.58;;;-4.53;81.45
58967;BME280;44744;51.894;5.080;2022-12-18T03:00:23;102948.44;;;-4.58;81.19
58967;BME280;44744;51.894;5.080;2022-12-18T03:03:13;102943.27;;;-4.61;81.38
58967;BME280;44744;51.894;5.080;2022-12-18T03:04:25;102936.61;;;-4.64;81.22
58967;BME280;44744;51.894;5.080;2022-12-18T03:05:36;102931.24;;;-4.64;81.43
58967;BME280;44744;51.894;5.080;2022-12-18T03:06:44;102928.64;;;-4.65;81.39
58967;BME280;44744;51.894;5.080;2022-12-18T03:07:51;102928.98;;;-4.64;81.34
58967;BME280;44744;51.894;5.080;2022-12-18T03:09:19;102925.61;;;-4.63;81.42
58967;BME280;44744;51.894;5.080;2022-12-18T03:10:26;102918.25;;;-4.61;81.38
58967;BME280;44744;51.894;5.080;2022-12-18T03:11:30;102916.61;;;-4.59;81.79
58967;BME280;44744;51.894;5.080;2022-12-18T03:12:36;102910.98;;;-4.57;81.49
58967;BME280;44744;51.894;5.080;2022-12-18T03:13:51;102910.39;;;-4.54;81.69
58967;BME280;44744;51.894;5.080;2022-12-18T03:16:13;102906.08;;;-4.50;81.54
58967;BME280;44744;51.894;5.080;2022-12-18T03:17:17;102898.85;;;-4.49;81.65
58967;BME280;44744;51.894;5.080;2022-12-18T03:18:32;102895.70;;;-4.50;81.50
58967;BME280;44744;51.894;5.080;2022-12-18T03:19:34;102895.19;;;-4.50;81.33
58967;BME280;44744;51.894;5.080;2022-12-18T03:20:36;102892.63;;;-4.49;81.37
58967;BME280;44744;51.894;5.080;2022-12-18T03:21:46;102892.13;;;-4.49;81.31
58967;BME280;44744;51.894;5.080;2022-12-18T03:22:51;102888.42;;;-4.51;81.06
58967;BME280;44744;51.894;5.080;2022-12-18T03:23:54;102887.44;;;-4.54;80.94
58967;BME280;44744;51.894;5.080;2022-12-18T03:24:55;102886.85;;;-4.55;80.81
58967;BME280;44744;51.894;5.080;2022-12-18T03:25:59;102885.85;;;-4.59;81.22
58967;BME280;44744;51.894;5.080;2022-12-18T03:27:02;102886.08;;;-4.62;81.00
58967;BME280;44744;51.894;5.080;2022-12-18T03:28:09;102888.59;;;-4.64;81.02
58967;BME280;44744;51.894;5.080;2022-12-18T03:29:25;102885.52;;;-4.67;80.77
58967;BME280;44744;51.894;5.080;2022-12-18T03:30:29;102884.55;;;-4.70;80.71
58967;BME280;44744;51.894;5.080;2022-12-18T03:31:31;102887.81;;;-4.71;80.88
58967;BME280;44744;51.894;5.080;2022-12-18T03:32:53;102888.52;;;-4.70;80.86
58967;BME280;44744;51.894;5.080;2022-12-18T03:34:01;102885.73;;;-4.71;80.77
58967;BME280;44744;51.894;5.080;2022-12-18T03:35:04;102892.52;;;-4.69;80.67
58967;BME280;44744;51.894;5.080;2022-12-18T03:36:06;102889.58;;;-4.70;81.09
58967;BME280;44744;51.894;5.080;2022-12-18T03:37:06;102887.71;;;-4.69;80.97
58967;BME280;44744;51.894;5.080;2022-12-18T03:38:07;102885.20;;;-4.67;80.66
58967;BME280;44744;51.894;5.080;2022-12-18T03:39:09;102881.73;;;-4.67;80.72
58967;BME280;44744;51.894;5.080;2022-12-18T03:40:09;102882.12;;;-4.66;80.55
58967;BME280;44744;51.894;5.080;2022-12-18T03:41:31;102881.83;;;-4.65;81.29
58967;BME280;44744;51.894;5.080;2022-12-18T03:46:15;102883.02;;;-4.66;80.83
58967;BME280;44744;51.894;5.080;2022-12-18T03:48:42;102888.32;;;-4.70;80.60
58967;BME280;44744;51.894;5.080;2022-12-18T03:49:52;102887.73;;;-4.72;80.57
58967;BME280;44744;51.894;5.080;2022-12-18T03:51:02;102882.30;;;-4.74;80.66
58967;BME280;44744;51.894;5.080;2022-12-18T03:52:09;102878.76;;;-4.76;80.66
58967;BME280;44744;51.894;5.080;2022-12-18T03:54:37;102880.69;;;-4.84;80.25
58967;BME280;44744;51.894;5.080;2022-12-18T03:55:39;102879.38;;;-4.87;80.08
58967;BME280;44744;51.894;5.080;2022-12-18T03:56:45;102874.44;;;-4.90;80.26
58967;BME280;44744;51.894;5.080;2022-12-18T03:57:48;102869.34;;;-4.91;80.17
58967;BME280;44744;51.894;5.080;2022-12-18T03:58:50;102864.27;;;-4.93;80.18
58967;BME280;44744;51.894;5.080;2022-12-18T03:59:57;102863.58;;;-4.94;79.95
58967;BME280;44744;51.894;5.080;2022-12-18T04:01:00;102858.55;;;-4.94;80.15
58967;BME280;44744;51.894;5.080;2022-12-18T04:02:03;102854.60;;;-4.93;80.15
58967;BME280;44744;51.894;5.080;2022-12-18T04:03:05;102857.35;;;-4.93;80.20
58967;BME280;44744;51.894;5.080;2022-12-18T04:04:08;102854.45;;;-4.93;80.43
58967;BME280;44744;51.894;5.080;2022-12-18T04:05:10;102852.95;;;-4.92;80.05
58967;BME280;44744;51.894;5.080;2022-12-18T04:06:13;102849.70;;;-4.90;80.31
58967;BME280;44744;51.894;5.080;2022-12-18T04:07:16;102853.54;;;-4.90;80.08
58967;BME280;44744;51.894;5.080;2022-12-18T04:08:17;102856.31;;;-4.89;80.29
58967;BME280;44744;51.894;5.080;2022-12-18T04:09:19;102855.13;;;-4.89;80.24
58967;BME280;44744;51.894;5.080;2022-12-18T04:10:20;102852.69;;;-4.90;80.43
58967;BME280;44744;51.894;5.080;2022-12-18T04:11:20;102855.09;;;-4.90;80.32
58967;BME280;44744;51.894;5.080;2022-12-18T04:12:25;102850.92;;;-4.90;80.48
58967;BME280;44744;51.894;5.080;2022-12-18T04:13:36;102854.91;;;-4.90;80.15
58967;BME280;44744;51.894;5.080;2022-12-18T04:14:36;102850.47;;;-4.93;80.24
58967;BME280;44744;51.894;5.080;2022-12-18T04:15:37;102851.11;;;-4.94;80.23
58967;BME280;44744;51.894;5.080;2022-12-18T04:16:38;102853.14;;;-4.95;80.22
58967;BME280;44744;51.894;5.080;2022-12-18T04:17:46;102852.38;;;-4.97;79.87
58967;BME280;44744;51.894;5.080;2022-12-18T04:18:47;102848.33;;;-4.99;80.03
58967;BME280;44744;51.894;5.080;2022-12-18T04:19:48;102850.09;;;-5.02;80.00
58967;BME280;44744;51.894;5.080;2022-12-18T04:20:48;102850.00;;;-5.05;79.83
58967;BME280;44744;51.894;5.080;2022-12-18T04:21:48;102848.73;;;-5.06;79.72
58967;BME280;44744;51.894;5.080;2022-12-18T04:22:49;102849.34;;;-5.08;79.71
58967;BME280;44744;51.894;5.080;2022-12-18T04:23:49;102851.71;;;-5.09;79.53
58967;BME280;44744;51.894;5.080;2022-12-18T04:24:49;102851.15;;;-5.10;79.75
58967;BME280;44744;51.894;5.080;2022-12-18T04:25:50;102852.11;;;-5.11;79.50
58967;BME280;44744;51.894;5.080;2022-12-18T04:26:50;102849.83;;;-5.13;79.84
58967;BME280;44744;51.894;5.080;2022-12-18T04:27:50;102852.53;;;-5.15;79.68
58967;BME280;44744;51.894;5.080;2022-12-18T04:28:51;102855.44;;;-5.15;79.70
58967;BME280;44744;51.894;5.080;2022-12-18T04:29:51;102859.58;;;-5.15;79.57
58967;BME280;44744;51.894;5.080;2022-12-18T04:30:51;102858.73;;;-5.15;80.05
58967;BME280;44744;51.894;5.080;2022-12-18T04:31:52;102862.88;;;-5.15;79.80
58967;BME280;44744;51.894;5.080;2022-12-18T04:32:52;102863.23;;;-5.15;79.90
58967;BME280;44744;51.894;5.080;2022-12-18T04:33:52;102867.87;;;-5.15;79.85
58967;BME280;44744;51.894;5.080;2022-12-18T04:34:53;102867.36;;;-5.14;79.73
58967;BME280;44744;51.894;5.080;2022-12-18T04:35:53;102872.02;;;-5.15;80.28
58967;BME280;44744;51.894;5.080;2022-12-18T04:36:53;102867.36;;;-5.14;80.12
58967;BME280;44744;51.894;5.080;2022-12-18T04:37:54;102870.65;;;-5.15;80.15
58967;BME280;44744;51.894;5.080;2022-12-18T04:38:54;102868.42;;;-5.14;79.95
58967;BME280;44744;51.894;5.080;2022-12-18T04:39:54;102869.27;;;-5.15;80.00
58967;BME280;44744;51.894;5.080;2022-12-18T04:40:55;102873.72;;;-5.15;79.72
58967;BME280;44744;51.894;5.080;2022-12-18T04:41:55;102875.09;;;-5.16;79.88
58967;BME280;44744;51.894;5.080;2022-12-18T04:42:55;102879.05;;;-5.16;79.84
58967;BME280;44744;51.894;5.080;2022-12-18T04:43:55;102879.73;;;-5.16;79.92
58967;BME280;44744;51.894;5.080;2022-12-18T04:44:57;102878.81;;;-5.17;79.70
58967;BME280;44744;51.894;5.080;2022-12-18T04:46:07;102879.48;;;-5.18;79.70
58967;BME280;44744;51.894;5.080;2022-12-18T04:47:07;102879.73;;;-5.19;79.51
58967;BME280;44744;51.894;5.080;2022-12-18T04:48:07;102880.71;;;-5.21;79.66
58967;BME280;44744;51.894;5.080;2022-12-18T04:49:08;102883.61;;;-5.22;79.59
58967;BME280;44744;51.894;5.080;2022-12-18T04:50:08;102883.02;;;-5.23;79.50
58967;BME280;44744;51.894;5.080;2022-12-18T04:51:09;102881.63;;;-5.24;79.67
58967;BME280;44744;51.894;5.080;2022-12-18T04:52:09;102883.32;;;-5.24;79.83
58967;BME280;44744;51.894;5.080;2022-12-18T04:53:09;102886.92;;;-5.25;79.55
58967;BME280;44744;51.894;5.080;2022-12-18T04:54:09;102886.40;;;-5.25;79.38
58967;BME280;44744;51.894;5.080;2022-12-18T04:55:10;102886.05;;;-5.25;79.50
58967;BME280;44744;51.894;5.080;2022-12-18T04:56:12;102887.09;;;-5.25;79.57
58967;BME280;44744;51.894;5.080;2022-12-18T04:57:13;102891.21;;;-5.26;79.51
58967;BME280;44744;51.894;5.080;2022-12-18T04:58:13;102891.25;;;-5.25;79.56
58967;BME280;44744;51.894;5.080;2022-12-18T04:59:14;102889.89;;;-5.24;79.66
58967;BME280;44744;51.894;5.080;2022-12-18T05:00:14;102891.10;;;-5.24;79.47
58967;BME280;44744;51.894;5.080;2022-12-18T05:01:16;102893.15;;;-5.25;79.69
58967;BME280;44744;51.894;5.080;2022-12-18T05:02:17;102891.98;;;-5.24;79.96
58967;BME280;44744;51.894;5.080;2022-12-18T05:03:17;102895.06;;;-5.24;79.50
58967;BME280;44744;51.894;5.080;2022-12-18T05:04:18;102896.60;;;-5.25;79.54
58967;BME280;44744;51.894;5.080;2022-12-18T05:05:18;102897.61;;;-5.25;79.50
58967;BME280;44744;51.894;5.080;2022-12-18T05:06:18;102894.66;;;-5.26;79.63
58967;BME280;44744;51.894;5.080;2022-12-18T05:07:18;102895.97;;;-5.27;79.48
58967;BME280;44744;51.894;5.080;2022-12-18T05:08:19;102894.55;;;-5.28;79.49
58967;BME280;44744;51.894;5.080;2022-12-18T05:09:20;102890.70;;;-5.30;79.19
58967;BME280;44744;51.894;5.080;2022-12-18T05:10:20;102891.13;;;-5.32;79.15
58967;BME280;44744;51.894;5.080;2022-12-18T05:11:21;102893.77;;;-5.34;79.10
58967;BME280;44744;51.894;5.080;2022-12-18T05:12:26;102891.83;;;-5.36;79.09
58967;BME280;44744;51.894;5.080;2022-12-18T05:13:27;102890.17;;;-5.38;79.01
58967;BME280;44744;51.894;5.080;2022-12-18T05:14:28;102893.05;;;-5.39;79.11
58967;BME280;44744;51.894;5.080;2022-12-18T05:15:29;102894.23;;;-5.40;79.16
58967;BME280;44744;51.894;5.080;2022-12-18T05:16:30;102890.44;;;-5.40;79.25
58967;BME280;44744;51.894;5.080;2022-12-18T05:17:30;102891.28;;;-5.40;79.24
58967;BME280;44744;51.894;5.080;2022-12-18T05:18:30;102887.64;;;-5.41;79.32
58967;BME280;44744;51.894;5.080;2022-12-18T05:19:31;102885.92;;;-5.41;78.93
58967;BME280;44744;51.894;5.080;2022-12-18T05:20:31;102886.11;;;-5.40;79.36
58967;BME280;44744;51.894;5.080;2022-12-18T05:21:32;102886.80;;;-5.40;79.15
58967;BME280;44744;51.894;5.080;2022-12-18T05:22:32;102886.15;;;-5.39;79.12
58967;BME280;44744;51.894;5.080;2022-12-18T05:23:32;102885.48;;;-5.38;79.46
58967;BME280;44744;51.894;5.080;2022-12-18T05:24:33;102885.34;;;-5.38;79.26
58967;BME280;44744;51.894;5.080;2022-12-18T05:25:33;102879.64;;;-5.38;79.20
58967;BME280;44744;51.894;5.080;2022-12-18T05:26:33;102882.61;;;-5.37;79.55
58967;BME280;44744;51.894;5.080;2022-12-18T05:27:33;102880.42;;;-5.36;79.68
58967;BME280;44744;51.894;5.080;2022-12-18T05:28:35;102881.27;;;-5.36;79.45
58967;BME280;44744;51.894;5.080;2022-12-18T05:29:35;102881.59;;;-5.37;79.09
58967;BME280;44744;51.894;5.080;2022-12-18T05:30:37;102882.05;;;-5.38;79.47
58967;BME280;44744;51.894;5.080;2022-12-18T05:31:38;102884.42;;;-5.39;79.09
58967;BME280;44744;51.894;5.080;2022-12-18T05:32:38;102888.86;;;-5.40;79.03
58967;BME280;44744;51.894;5.080;2022-12-18T05:33:39;102883.12;;;-5.41;79.18
58967;BME280;44744;51.894;5.080;2022-12-18T05:34:39;102886.80;;;-5.43;79.00
58967;BME280;44744;51.894;5.080;2022-12-18T05:35:39;102887.46;;;-5.45;78.84
58967;BME280;44744;51.894;5.080;2022-12-18T05:36:40;102889.44;;;-5.47;79.06
58967;BME280;44744;51.894;5.080;2022-12-18T05:37:40;102889.52;;;-5.49;78.74
58967;BME280;44744;51.894;5.080;2022-12-18T05:38:41;102888.56;;;-5.51;79.06
58967;BME280;44744;51.894;5.080;2022-12-18T05:39:42;102885.73;;;-5.53;78.87
58967;BME280;44744;51.894;5.080;2022-12-18T05:40:43;102889.82;;;-5.54;78.88
58967;BME280;44744;51.894;5.080;2022-12-18T05:41:43;102890.63;;;-5.55;78.78
58967;BME280;44744;51.894;5.080;2022-12-18T05:42:43;102886.98;;;-5.56;78.71
58967;BME280;44744;51.894;5.080;2022-12-18T05:43:44;102884.92;;;-5.56;78.86
58967;BME280;44744;51.894;5.080;2022-12-18T05:44:44;102882.52;;;-5.55;78.98
58967;BME280;44744;51.894;5.080;2022-12-18T05:45:44;102878.92;;;-5.55;79.03
58967;BME280;44744;51.894;5.080;2022-12-18T05:46:45;102877.56;;;-5.54;79.09
58967;BME280;44744;51.894;5.080;2022-12-18T05:47:45;102874.64;;;-5.54;78.76
58967;BME280;44744;51.894;5.080;2022-12-18T05:48:45;102873.74;;;-5.55;79.04
58967;BME280;44744;51.894;5.080;2022-12-18T05:49:46;102872.87;;;-5.55;79.21
58967;BME280;44744;51.894;5.080;2022-12-18T05:50:48;102872.48;;;-5.56;79.13
58967;BME280;44744;51.894;5.080;2022-12-18T05:51:48;102872.80;;;-5.56;79.16
58967;BME280;44744;51.894;5.080;2022-12-18T05:52:48;102867.65;;;-5.60;79.07
58967;BME280;44744;51.894;5.080;2022-12-18T05:53:49;102867.26;;;-5.61;79.16
58967;BME280;44744;51.894;5.080;2022-12-18T05:54:49;102864.61;;;-5.63;79.10